createdAt,value
2022-12-31T00:02:17.570Z,90.86
2022-12-31T00:04:44.400Z,90.94
2022-12-31T00:07:11.101Z,90.42
2022-12-31T00:09:37.618Z,90.61
2022-12-31T00:12:04.551Z,90.53
2022-12-31T00:14:31.173Z,91.19
2022-12-31T00:16:57.713Z,91.07
2022-12-31T00:19:24.298Z,91.38
2022-12-31T00:21:50.846Z,91.97
2022-12-31T00:24:17.297Z,91.90
2022-12-31T00:26:43.798Z,92.15
2022-12-31T00:29:10.452Z,91.71
2022-12-31T00:31:38.331Z,91.91
2022-12-31T00:34:05.995Z,91.90
2022-12-31T00:36:36.330Z,91.76
2022-12-31T00:39:05.011Z,91.91
2022-12-31T00:41:31.997Z,92.12
2022-12-31T00:43:58.983Z,92.02
2022-12-31T00:46:26.059Z,92.18
2022-12-31T00:48:52.898Z,92.79
2022-12-31T00:51:23.688Z,92.70
2022-12-31T00:53:50.424Z,92.77
2022-12-31T00:56:19.669Z,92.54
2022-12-31T00:58:47.137Z,92.74
2022-12-31T01:01:19.672Z,92.33
2022-12-31T01:03:48.105Z,92.35
2022-12-31T01:06:15.157Z,92.19
2022-12-31T01:08:41.601Z,92.33
2022-12-31T01:11:22.248Z,92.04
2022-12-31T01:13:59.480Z,92.32
2022-12-31T01:16:37.710Z,91.54
2022-12-31T01:19:07.843Z,91.16
2022-12-31T01:21:35.207Z,90.77
2022-12-31T01:24:02.000Z,91.20
2022-12-31T01:26:28.958Z,91.37
2022-12-31T01:28:55.458Z,91.69
2022-12-31T01:31:23.549Z,91.10
2022-12-31T01:33:51.312Z,91.19
2022-12-31T01:36:25.509Z,90.53
2022-12-31T01:38:52.865Z,90.72
2022-12-31T01:41:25.690Z,90.37
2022-12-31T01:43:58.532Z,90.06
2022-12-31T01:46:42.539Z,89.70
2022-12-31T01:49:24.084Z,89.87
2022-12-31T01:51:56.337Z,88.82
2022-12-31T01:54:25.640Z,88.96
2022-12-31T01:56:53.677Z,89.27
2022-12-31T01:59:24.100Z,89.55
2022-12-31T02:01:54.227Z,89.75
2022-12-31T02:04:23.910Z,89.81
2022-12-31T02:07:03.237Z,89.73
2022-12-31T02:09:31.226Z,89.98
2022-12-31T02:11:57.617Z,90.15
2022-12-31T02:14:33.810Z,90.11
2022-12-31T02:17:15.471Z,89.97
2022-12-31T02:20:06.865Z,89.77
2022-12-31T02:22:42.436Z,89.85
2022-12-31T02:25:21.785Z,90.04
2022-12-31T02:28:08.978Z,90.55
2022-12-31T02:30:37.521Z,89.87
2022-12-31T02:33:17.373Z,90.29
2022-12-31T02:35:52.404Z,89.72
2022-12-31T02:38:31.096Z,89.94
2022-12-31T02:40:58.174Z,89.93
2022-12-31T02:43:25.288Z,90.13
2022-12-31T02:46:01.129Z,90.27
2022-12-31T02:49:00.666Z,89.83
2022-12-31T02:51:42.371Z,89.84
2022-12-31T02:54:25.746Z,90.09
2022-12-31T02:57:05.405Z,89.33
2022-12-31T02:59:53.105Z,89.00
2022-12-31T03:02:23.069Z,89.64
2022-12-31T03:04:55.413Z,89.54
2022-12-31T03:07:27.754Z,89.42
2022-12-31T03:09:54.730Z,89.28
2022-12-31T03:12:47.995Z,89.63
2022-12-31T03:15:29.388Z,89.19
2022-12-31T03:18:12.472Z,89.36
2022-12-31T03:21:03.387Z,88.58
2022-12-31T03:23:36.494Z,88.20
2022-12-31T03:26:10.816Z,88.75
2022-12-31T03:28:40.157Z,89.09
2022-12-31T03:31:07.777Z,89.24
2022-12-31T03:33:37.141Z,88.38
2022-12-31T03:36:09.591Z,88.76
2022-12-31T03:38:36.250Z,88.61
2022-12-31T03:41:03.063Z,88.32
2022-12-31T03:43:29.495Z,88.72
2022-12-31T03:45:58.574Z,88.26
2022-12-31T03:48:25.076Z,88.89
2022-12-31T03:50:52.019Z,89.13
2022-12-31T03:53:18.789Z,88.64
2022-12-31T03:55:45.261Z,89.31
2022-12-31T03:58:11.738Z,89.58
2022-12-31T04:00:38.486Z,90.21
2022-12-31T04:03:05.101Z,90.16
2022-12-31T04:05:32.371Z,90.16
2022-12-31T04:07:58.926Z,89.73
2022-12-31T04:10:25.322Z,90.74
2022-12-31T04:12:51.898Z,90.19
2022-12-31T04:15:20.658Z,90.65
2022-12-31T04:17:48.304Z,90.76
2022-12-31T04:20:16.112Z,90.16
2022-12-31T04:22:42.670Z,89.74
2022-12-31T04:25:12.888Z,88.99
2022-12-31T04:27:40.932Z,88.30
2022-12-31T04:30:08.113Z,87.64
2022-12-31T04:32:34.485Z,87.56
2022-12-31T04:35:00.965Z,87.49
2022-12-31T04:37:27.555Z,88.29
2022-12-31T04:39:54.058Z,89.06
2022-12-31T04:42:20.491Z,89.74
2022-12-31T04:44:46.964Z,90.10
2022-12-31T04:47:15.265Z,90.15
2022-12-31T04:49:43.793Z,89.69
2022-12-31T04:52:10.376Z,89.42
2022-12-31T04:54:36.825Z,88.90
2022-12-31T04:57:03.355Z,88.41
2022-12-31T04:59:29.795Z,88.17
2022-12-31T05:01:56.511Z,87.68
2022-12-31T05:04:23.094Z,87.61
2022-12-31T05:06:49.465Z,87.36
2022-12-31T05:09:15.959Z,87.56
2022-12-31T05:11:42.400Z,88.22
2022-12-31T05:14:08.851Z,88.58
2022-12-31T05:16:35.345Z,88.59
2022-12-31T05:19:02.021Z,89.86
2022-12-31T05:21:28.739Z,90.15
2022-12-31T05:23:55.277Z,90.70
2022-12-31T05:26:21.699Z,90.22
2022-12-31T05:28:48.107Z,89.24
2022-12-31T05:31:14.553Z,88.84
2022-12-31T05:33:41.005Z,89.32
2022-12-31T05:36:07.720Z,88.81
2022-12-31T05:38:34.146Z,88.79
2022-12-31T05:41:06.088Z,88.45
2022-12-31T05:43:32.912Z,88.61
2022-12-31T05:46:04.303Z,88.80
2022-12-31T05:48:31.825Z,89.03
2022-12-31T05:50:58.505Z,88.52
2022-12-31T05:53:25.118Z,88.32
2022-12-31T05:55:51.531Z,88.42
2022-12-31T05:58:18.390Z,87.75
2022-12-31T06:00:45.953Z,87.60
2022-12-31T06:03:12.478Z,87.18
2022-12-31T06:05:40.995Z,87.02
2022-12-31T06:08:07.632Z,86.45
2022-12-31T06:10:34.004Z,85.53
2022-12-31T06:13:00.420Z,85.73
2022-12-31T06:15:27.105Z,85.17
2022-12-31T06:17:53.503Z,84.75
2022-12-31T06:20:19.994Z,85.10
2022-12-31T06:22:46.489Z,84.53
2022-12-31T06:25:13.121Z,84.70
2022-12-31T06:27:39.514Z,85.01
2022-12-31T06:30:07.197Z,84.78
2022-12-31T06:32:34.979Z,84.40
2022-12-31T06:35:01.535Z,84.28
2022-12-31T06:37:28.145Z,83.79
2022-12-31T06:39:54.556Z,83.57
2022-12-31T06:42:21.227Z,83.74
2022-12-31T06:44:47.599Z,83.15
2022-12-31T06:47:14.056Z,82.22
2022-12-31T06:49:40.803Z,82.36
2022-12-31T06:52:07.300Z,82.24
2022-12-31T06:54:33.986Z,81.88
2022-12-31T06:57:00.668Z,81.83
2022-12-31T06:59:29.501Z,82.13
2022-12-31T07:02:09.499Z,82.51
2022-12-31T07:04:55.536Z,82.90
2022-12-31T07:07:38.332Z,82.85
2022-12-31T07:10:30.677Z,82.05
2022-12-31T07:12:57.019Z,82.40
2022-12-31T07:15:51.161Z,82.38
2022-12-31T07:18:31.134Z,82.43
2022-12-31T07:20:58.328Z,82.30
2022-12-31T07:23:25.386Z,82.06
2022-12-31T07:26:02.054Z,81.82
2022-12-31T07:28:39.350Z,81.57
2022-12-31T07:31:22.084Z,81.57
2022-12-31T07:34:00.838Z,81.63
2022-12-31T07:36:57.864Z,82.02
2022-12-31T07:39:47.822Z,82.36
2022-12-31T07:42:16.914Z,82.94
2022-12-31T07:45:10.838Z,82.84
2022-12-31T07:47:37.559Z,83.07
2022-12-31T07:50:04.436Z,82.73
2022-12-31T07:52:31.289Z,82.65
2022-12-31T07:54:57.799Z,82.75
2022-12-31T07:57:32.201Z,82.76
2022-12-31T08:00:06.092Z,82.76
2022-12-31T08:03:09.758Z,82.72
2022-12-31T08:05:44.070Z,82.01
2022-12-31T08:08:38.171Z,81.63
2022-12-31T08:11:46.347Z,81.57
2022-12-31T08:14:14.796Z,81.55
2022-12-31T08:16:41.856Z,81.55
2022-12-31T08:19:22.517Z,81.59
2022-12-31T08:21:53.500Z,81.47
2022-12-31T08:24:30.474Z,81.66
2022-12-31T08:26:56.939Z,81.17
2022-12-31T08:29:55.242Z,81.21
2022-12-31T08:32:35.673Z,81.60
2022-12-31T08:35:37.599Z,81.24
2022-12-31T08:38:37.653Z,80.93
2022-12-31T08:41:18.023Z,81.21
2022-12-31T08:44:07.647Z,81.37
2022-12-31T08:46:55.656Z,81.61
2022-12-31T08:49:22.237Z,80.85
2022-12-31T08:51:49.128Z,80.58
2022-12-31T08:54:15.806Z,81.23
2022-12-31T08:56:50.772Z,81.25
2022-12-31T08:59:32.531Z,81.07
2022-12-31T09:02:08.251Z,80.62
2022-12-31T09:05:09.819Z,80.50
2022-12-31T09:07:39.340Z,81.31
2022-12-31T09:10:06.079Z,81.23
2022-12-31T09:12:47.279Z,80.89
2022-12-31T09:15:29.769Z,80.68
2022-12-31T09:17:56.435Z,81.19
2022-12-31T09:20:23.146Z,80.53
2022-12-31T09:22:50.464Z,80.60
2022-12-31T09:25:19.135Z,80.60
2022-12-31T09:28:26.205Z,80.88
2022-12-31T09:31:08.549Z,80.80
2022-12-31T09:33:55.630Z,81.12
2022-12-31T09:36:39.315Z,81.14
2022-12-31T09:39:16.592Z,80.06
2022-12-31T09:41:42.946Z,79.92
2022-12-31T09:44:32.874Z,79.79
2022-12-31T09:47:24.226Z,79.46
2022-12-31T09:50:20.061Z,78.63
2022-12-31T09:53:23.699Z,78.13
2022-12-31T09:56:02.791Z,77.72
2022-12-31T09:58:44.000Z,77.49
2022-12-31T10:01:34.809Z,77.30
2022-12-31T10:04:19.907Z,76.27
2022-12-31T10:07:18.453Z,76.09
2022-12-31T10:10:06.564Z,75.93
2022-12-31T10:12:42.373Z,75.31
2022-12-31T10:15:18.043Z,76.03
2022-12-31T10:18:06.262Z,74.73
2022-12-31T10:21:06.482Z,73.18
2022-12-31T10:24:07.061Z,73.51
2022-12-31T10:26:46.201Z,73.19
2022-12-31T10:29:44.196Z,72.28
2022-12-31T10:32:18.814Z,71.52
2022-12-31T10:35:02.293Z,72.47
2022-12-31T10:37:46.868Z,71.20
2022-12-31T10:40:55.352Z,71.63
2022-12-31T10:43:43.578Z,72.89
2022-12-31T10:46:16.380Z,73.51
2022-12-31T10:49:17.151Z,72.48
2022-12-31T10:52:05.383Z,72.41
2022-12-31T10:54:42.028Z,73.74
2022-12-31T10:57:41.614Z,72.98
2022-12-31T11:00:12.567Z,72.19
2022-12-31T11:03:18.332Z,72.79
2022-12-31T11:06:08.691Z,75.05
2022-12-31T11:09:18.213Z,74.66
2022-12-31T11:12:03.154Z,74.15
2022-12-31T11:14:48.049Z,75.14
2022-12-31T11:17:41.757Z,75.49
2022-12-31T11:20:34.061Z,76.44
2022-12-31T11:23:28.290Z,76.20
2022-12-31T11:26:04.334Z,75.74
2022-12-31T11:28:42.634Z,75.95
2022-12-31T11:31:24.324Z,76.22
2022-12-31T11:34:25.554Z,76.77
2022-12-31T11:37:16.943Z,76.59
2022-12-31T11:39:59.614Z,75.65
2022-12-31T11:42:44.311Z,74.41
2022-12-31T11:45:10.702Z,74.17
2022-12-31T11:48:29.574Z,74.73
2022-12-31T11:51:00.228Z,74.44
2022-12-31T11:53:36.250Z,75.43
2022-12-31T11:56:18.880Z,75.31
2022-12-31T11:58:51.741Z,75.19
2022-12-31T12:01:33.530Z,75.20
2022-12-31T12:04:01.059Z,74.70
2022-12-31T12:06:30.208Z,74.49
2022-12-31T12:09:03.466Z,73.90
2022-12-31T12:11:34.223Z,73.97
2022-12-31T12:14:00.812Z,73.88
2022-12-31T12:16:28.383Z,73.09
2022-12-31T12:19:03.183Z,73.17
2022-12-31T12:21:30.060Z,73.14
2022-12-31T12:23:57.728Z,72.77
2022-12-31T12:26:39.292Z,72.02
2022-12-31T12:29:11.331Z,72.59
2022-12-31T12:31:38.267Z,71.77
2022-12-31T12:34:06.167Z,70.99
2022-12-31T12:36:33.380Z,72.30
2022-12-31T12:39:01.814Z,71.57
2022-12-31T12:41:28.291Z,70.73
2022-12-31T12:44:04.145Z,69.97
2022-12-31T12:46:35.810Z,70.69
2022-12-31T12:49:03.759Z,69.73
2022-12-31T12:52:09.220Z,68.85
2022-12-31T12:54:42.544Z,69.01
2022-12-31T12:57:39.098Z,69.54
2022-12-31T13:00:08.308Z,69.61
2022-12-31T13:02:53.108Z,69.32
2022-12-31T13:05:43.836Z,69.14
2022-12-31T13:08:32.285Z,68.63
2022-12-31T13:11:18.210Z,67.94
2022-12-31T13:14:02.419Z,68.05
2022-12-31T13:16:34.594Z,67.59
2022-12-31T13:19:28.183Z,68.90
2022-12-31T13:22:17.804Z,68.41
2022-12-31T13:24:52.488Z,68.23
2022-12-31T13:27:26.589Z,67.56
2022-12-31T13:29:55.150Z,68.00
2022-12-31T13:32:38.083Z,66.96
2022-12-31T13:35:21.540Z,67.45
2022-12-31T13:37:49.808Z,68.60
2022-12-31T13:40:48.127Z,68.08
2022-12-31T13:43:48.871Z,67.24
2022-12-31T13:46:32.137Z,67.36
2022-12-31T13:49:03.313Z,67.60
2022-12-31T13:51:41.392Z,68.79
2022-12-31T13:54:29.637Z,67.90
2022-12-31T13:57:02.425Z,67.24
2022-12-31T13:59:34.311Z,68.32
2022-12-31T14:02:24.490Z,69.02
2022-12-31T14:04:56.408Z,69.51
2022-12-31T14:07:35.367Z,69.34
2022-12-31T14:10:12.695Z,69.18
2022-12-31T14:12:45.314Z,69.65
2022-12-31T14:15:33.281Z,70.21
2022-12-31T14:18:14.255Z,70.36
2022-12-31T14:20:52.330Z,70.13
2022-12-31T14:23:40.090Z,70.26
2022-12-31T14:26:22.664Z,70.14
2022-12-31T14:29:08.717Z,69.30
2022-12-31T14:31:51.798Z,69.88
2022-12-31T14:34:21.204Z,70.06
2022-12-31T14:36:57.481Z,70.39
2022-12-31T14:39:38.754Z,70.21
2022-12-31T14:42:05.235Z,70.38
2022-12-31T14:45:04.751Z,70.04
2022-12-31T14:47:57.856Z,70.17
2022-12-31T14:50:29.606Z,70.60
2022-12-31T14:53:22.467Z,70.60
2022-12-31T14:55:58.214Z,70.48
2022-12-31T14:58:30.843Z,70.20
2022-12-31T15:00:58.856Z,70.31
2022-12-31T15:03:31.324Z,70.55
2022-12-31T15:06:08.733Z,70.72
2022-12-31T15:09:08.910Z,70.63
2022-12-31T15:11:41.927Z,70.02
2022-12-31T15:14:37.571Z,70.67
2022-12-31T15:17:26.175Z,70.03
2022-12-31T15:20:01.866Z,69.69
2022-12-31T15:22:35.597Z,70.34
2022-12-31T15:25:02.768Z,69.88
2022-12-31T15:27:42.313Z,69.56
2022-12-31T15:30:28.755Z,69.86
2022-12-31T15:32:58.999Z,69.61
2022-12-31T15:35:30.977Z,69.99
2022-12-31T15:38:19.363Z,69.10
2022-12-31T15:40:51.405Z,69.03
2022-12-31T15:43:31.338Z,68.18
2022-12-31T15:45:58.267Z,68.32
2022-12-31T15:48:31.253Z,67.86
2022-12-31T15:51:00.262Z,67.53
2022-12-31T15:53:28.932Z,66.15
2022-12-31T15:55:58.025Z,66.39
2022-12-31T15:58:29.808Z,66.51
2022-12-31T16:01:20.445Z,66.03
2022-12-31T16:03:57.684Z,66.50
2022-12-31T16:06:28.176Z,66.85
2022-12-31T16:08:55.620Z,66.86
2022-12-31T16:11:23.376Z,66.54
2022-12-31T16:13:53.573Z,66.28
2022-12-31T16:16:26.331Z,66.41
2022-12-31T16:18:53.181Z,66.66
2022-12-31T16:21:33.588Z,66.53
2022-12-31T16:24:26.219Z,65.91
2022-12-31T16:26:55.961Z,66.07
2022-12-31T16:29:24.042Z,65.80
2022-12-31T16:31:53.623Z,65.52
2022-12-31T16:34:25.442Z,66.05
2022-12-31T16:37:01.214Z,65.74
2022-12-31T16:39:38.673Z,64.92
2022-12-31T16:42:13.949Z,63.80
2022-12-31T16:44:41.019Z,64.85
2022-12-31T16:47:09.833Z,65.25
2022-12-31T16:49:39.252Z,64.50
2022-12-31T16:52:14.478Z,64.21
2022-12-31T16:54:46.819Z,64.99
2022-12-31T16:57:21.408Z,65.03
2022-12-31T16:59:52.559Z,65.22
2022-12-31T17:02:25.589Z,65.28
2022-12-31T17:04:56.268Z,65.11
2022-12-31T17:07:32.211Z,65.40
2022-12-31T17:10:08.701Z,64.97
2022-12-31T17:13:08.761Z,64.98
2022-12-31T17:15:40.019Z,64.72
2022-12-31T17:18:07.478Z,64.77
2022-12-31T17:20:34.521Z,65.22
2022-12-31T17:23:05.263Z,64.36
2022-12-31T17:25:34.033Z,64.43
2022-12-31T17:28:21.018Z,64.93
2022-12-31T17:30:47.804Z,64.62
2022-12-31T17:33:14.219Z,65.47
2022-12-31T17:35:42.921Z,65.22
2022-12-31T17:38:29.776Z,64.74
2022-12-31T17:41:14.547Z,64.69
2022-12-31T17:43:41.772Z,64.52
2022-12-31T17:46:14.012Z,64.35
2022-12-31T17:48:41.234Z,64.59
2022-12-31T17:51:08.031Z,65.09
2022-12-31T17:53:34.902Z,64.89
2022-12-31T17:56:04.137Z,64.61
2022-12-31T17:58:43.634Z,64.77
2022-12-31T18:01:12.222Z,64.82
2022-12-31T18:03:38.749Z,64.02
2022-12-31T18:06:05.476Z,64.72
2022-12-31T18:08:32.128Z,64.59
2022-12-31T18:10:58.674Z,64.64
2022-12-31T18:13:26.835Z,65.12
2022-12-31T18:15:53.855Z,64.65
2022-12-31T18:18:25.679Z,64.89
2022-12-31T18:21:04.875Z,64.56
2022-12-31T18:23:37.523Z,64.24
2022-12-31T18:26:04.259Z,63.99
2022-12-31T18:28:30.972Z,64.71
2022-12-31T18:30:57.463Z,64.80
2022-12-31T18:33:25.091Z,64.62
2022-12-31T18:36:09.624Z,64.16
2022-12-31T18:38:36.753Z,64.38
2022-12-31T18:41:04.168Z,64.52
2022-12-31T18:43:31.064Z,64.53
2022-12-31T18:45:57.823Z,64.52
2022-12-31T18:48:24.558Z,64.30
2022-12-31T18:50:51.267Z,64.35
2022-12-31T18:53:21.089Z,63.79
2022-12-31T18:55:56.181Z,64.29
2022-12-31T18:58:23.333Z,64.17
2022-12-31T19:00:50.732Z,64.60
2022-12-31T19:03:19.981Z,64.16
2022-12-31T19:05:49.743Z,64.13
2022-12-31T19:08:21.179Z,63.30
2022-12-31T19:10:48.797Z,63.06
2022-12-31T19:13:17.613Z,63.12
2022-12-31T19:15:52.241Z,62.63
2022-12-31T19:18:19.088Z,61.39
2022-12-31T19:20:45.937Z,61.18
2022-12-31T19:23:18.062Z,60.95
2022-12-31T19:25:46.520Z,60.82
2022-12-31T19:28:23.087Z,60.59
2022-12-31T19:30:49.788Z,60.35
2022-12-31T19:33:17.287Z,59.29
2022-12-31T19:35:44.766Z,59.42
2022-12-31T19:38:20.440Z,59.44
2022-12-31T19:40:47.816Z,59.07
2022-12-31T19:43:16.012Z,58.73
2022-12-31T19:45:43.835Z,58.97
2022-12-31T19:48:12.527Z,59.13
2022-12-31T19:50:42.775Z,59.15
2022-12-31T19:53:12.654Z,58.95
2022-12-31T19:55:39.871Z,58.44
2022-12-31T19:58:07.246Z,58.04
2022-12-31T20:00:34.255Z,57.46
2022-12-31T20:03:01.434Z,57.78
2022-12-31T20:05:28.144Z,57.69
2022-12-31T20:07:54.599Z,57.34
2022-12-31T20:10:21.448Z,57.21
2022-12-31T20:12:47.974Z,57.07
2022-12-31T20:15:14.470Z,56.30
2022-12-31T20:17:40.901Z,56.70
2022-12-31T20:20:07.862Z,56.33
2022-12-31T20:22:34.276Z,55.17
2022-12-31T20:25:00.833Z,55.99
2022-12-31T20:27:27.467Z,55.33
2022-12-31T20:29:53.861Z,55.84
2022-12-31T20:32:20.432Z,55.97
2022-12-31T20:34:47.073Z,55.34
2022-12-31T20:37:13.538Z,55.42
2022-12-31T20:39:39.981Z,55.92
2022-12-31T20:42:06.880Z,56.57
2022-12-31T20:44:33.335Z,55.87
2022-12-31T20:46:59.716Z,56.47
2022-12-31T20:49:52.031Z,56.59
2022-12-31T20:52:13.191Z,56.72
2022-12-31T20:54:39.622Z,56.99
2022-12-31T20:57:06.034Z,57.58
2022-12-31T20:59:32.699Z,57.81
2022-12-31T21:04:46.931Z,57.43
2022-12-31T21:07:13.520Z,56.94
2022-12-31T21:09:39.952Z,57.10
2022-12-31T21:12:24.930Z,56.35
2022-12-31T21:14:51.475Z,55.95
2022-12-31T21:17:18.089Z,55.88
2022-12-31T21:19:44.578Z,56.18
2022-12-31T21:22:11.505Z,56.32
2022-12-31T21:24:39.139Z,55.87
2022-12-31T21:27:06.435Z,56.58
2022-12-31T21:29:35.538Z,55.87
2022-12-31T21:32:03.729Z,56.38
2022-12-31T21:34:30.225Z,56.35
2022-12-31T21:36:56.744Z,56.50
2022-12-31T21:39:23.327Z,56.99
2022-12-31T21:41:52.627Z,57.16
2022-12-31T21:44:21.322Z,57.61
2022-12-31T21:47:45.475Z,56.15
2022-12-31T21:50:10.223Z,57.67
2022-12-31T21:52:36.629Z,57.88
2022-12-31T21:55:23.339Z,57.77
2022-12-31T22:00:55.902Z,57.98
2022-12-31T22:03:27.600Z,58.39
2022-12-31T22:06:00.325Z,59.12
2022-12-31T22:08:28.170Z,59.32
2022-12-31T22:10:55.061Z,59.31
2022-12-31T22:13:22.165Z,59.65
2022-12-31T22:15:58.723Z,59.29
2022-12-31T22:18:28.992Z,59.28
2022-12-31T22:21:17.784Z,59.89
2022-12-31T22:23:46.565Z,59.64
2022-12-31T22:26:15.147Z,60.03
2022-12-31T22:28:43.348Z,60.40
2022-12-31T22:31:13.936Z,60.11
2022-12-31T22:33:40.635Z,60.12
2022-12-31T22:36:10.809Z,60.73
2022-12-31T22:38:37.473Z,60.52
2022-12-31T22:41:06.394Z,60.69
2022-12-31T22:43:37.436Z,61.18
2022-12-31T22:46:30.507Z,60.60
2022-12-31T22:48:59.176Z,60.65
2022-12-31T22:51:30.521Z,61.21
2022-12-31T22:54:12.552Z,61.27
2022-12-31T22:56:38.986Z,60.95
2022-12-31T22:59:05.646Z,60.62
2022-12-31T23:01:32.461Z,61.04
2022-12-31T23:03:59.241Z,60.98
2022-12-31T23:06:26.173Z,60.75
2022-12-31T23:09:11.119Z,61.42
2022-12-31T23:11:40.822Z,61.63
2022-12-31T23:14:26.652Z,61.80
2022-12-31T23:17:30.411Z,61.99
2022-12-31T23:20:18.097Z,61.94
2022-12-31T23:23:03.791Z,62.63
2022-12-31T23:25:41.694Z,62.68
2022-12-31T23:28:11.429Z,62.17
2022-12-31T23:30:42.266Z,62.41
2022-12-31T23:33:13.967Z,62.14
2022-12-31T23:35:40.418Z,62.42
2022-12-31T23:38:06.902Z,63.04
2022-12-31T23:40:36.275Z,63.38
2022-12-31T23:43:06.069Z,63.24
2022-12-31T23:45:33.933Z,63.55
2022-12-31T23:48:00.667Z,63.64
2022-12-31T23:50:27.257Z,63.53
2022-12-31T23:52:54.179Z,63.68
2022-12-31T23:55:21.270Z,64.28
2022-12-31T23:57:47.743Z,63.87
